Nyk Olympus — 3EOS7 — position and weather

sailwx.info

Track history (hours):
 
Tides and Currents Weather Stations Pressure Air Temp Water Temp Dewpoint Dewpoint Depression Visibility Wind Speed Wind Dir Waves Ship Positions

Nyk Olympus

Last reported at 2017-Jun-27 00:47 UTC. Time now 2017-Jun-27 05:25 UTC.
Position N 31°27' E 032°24'.

Length 335 m; draft 13.6 m.

Type: Other ship. MMSI: 372478000.

Date/timePositionNaut miles runAvg speedWind from/ knotsBaromVisibWave heightAir tempDewpointWater temp
2017-Jun-27 00:47N 31°27' E 032°24'311.6
2017-Jun-27 00:31N 31°29' E 032°20'1 0.3
2017-Jun-26 21:59N 31°28' E 032°20'0 0.0
2017-Jun-26 21:29N 31°28' E 032°20'0 0.0
2017-Jun-26 20:59N 31°28' E 032°20'0 0.0
2017-Jun-26 20:29N 31°28' E 032°20'0 0.0
2017-Jun-26 19:59N 31°28' E 032°20'0 0.0
2017-Jun-26 19:29N 31°28' E 032°20'0 0.0
2017-Jun-26 18:59N 31°28' E 032°20'0 0.0
2017-Jun-26 18:23N 31°28' E 032°20'0 0.0
2017-Jun-26 17:23N 31°28' E 032°20'1 1.8
2017-Jun-26 17:00N 31°28' E 032°20'4 7.9
2017-Jun-26 16:30N 31°29' E 032°15'918.3
2017-Jun-26 16:00N 31°36' E 032°08'1019.0
2017-Jun-26 15:28N 31°43' E 031°59'919.1
2017-Jun-26 15:00N 31°47' E 031°50'1019.3
2017-Jun-26 14:30N 31°50' E 031°39'1919.3
2017-Jun-26 13:30N 31°56' E 031°18'1019.2
2017-Jun-26 13:00N 31°59' E 031°07'1119.2
2017-Jun-26 12:25N 32°03' E 030°54'1019.2
2017-Jun-26 11:54N 32°05' E 030°43'819.3
2017-Jun-26 11:30N 32°08' E 030°34'919.4
2017-Jun-26 11:00N 32°11' E 030°24'1019.3
2017-Jun-26 10:30N 32°13' E 030°13'1019.4
2017-Jun-26 10:00N 32°16' E 030°02'1019.4
2017-Jun-26 09:30N 32°19' E 029°51'12618.9
2017-Jun-26 02:49N 32°57' E 027°28'24919.0
2017-Jun-25 13:42N 34°13' E 022°43'13319.5
2017-Jun-25 06:53N 34°53' E 020°10'819.5
2017-Jun-25 06:29N 34°56' E 020°01'4119.9
2017-Jun-25 04:24N 35°08' E 019°12'920.0
2017-Jun-25 03:58N 35°11' E 019°02'920.0
2017-Jun-25 03:30N 35°14' E 018°51'1119.8
2017-Jun-25 02:57N 35°17' E 018°39'919.7
2017-Jun-25 02:30N 35°20' E 018°28'1019.8
2017-Jun-25 02:00N 35°23' E 018°17'1020.0
2017-Jun-25 01:30N 35°26' E 018°05'1320.0
2017-Jun-25 00:52N 35°30' E 017°50'719.7
2017-Jun-25 00:30N 35°32' E 017°42'1019.6
2017-Jun-25 00:00N 35°35' E 017°30'1019.8
2017-Jun-24 23:30N 35°37' E 017°18'1020.0
2017-Jun-24 23:00N 35°40' E 017°07'1020.0
2017-Jun-24 22:30N 35°43' E 016°55'1020.3
2017-Jun-24 22:00N 35°46' E 016°43'1020.3
2017-Jun-24 21:30N 35°49' E 016°31'1020.2
2017-Jun-24 21:00N 35°52' E 016°19'1020.2
2017-Jun-24 20:30N 35°55' E 016°07'1020.1
2017-Jun-24 20:00N 35°58' E 015°55'1020.2
2017-Jun-24 19:30N 36°00' E 015°43'1020.2
2017-Jun-24 19:00N 36°03' E 015°31'1020.1
2017-Jun-24 18:30N 36°06' E 015°19'1019.6
2017-Jun-24 17:59N 36°10' E 015°08'1020.2
2017-Jun-24 17:30N 36°13' E 014°56'1020.2
2017-Jun-24 17:00N 36°16' E 014°44'1020.1
2017-Jun-24 16:30N 36°19' E 014°32'1019.9
2017-Jun-24 16:00N 36°23' E 014°21'1019.8
2017-Jun-24 15:30N 36°26' E 014°09'1019.8
2017-Jun-24 15:00N 36°29' E 013°58'2019.8
2017-Jun-24 14:00N 36°35' E 013°34'1019.9
2017-Jun-24 13:30N 36°38' E 013°22'1019.9
2017-Jun-24 13:00N 36°41' E 013°10'1019.8
2017-Jun-24 12:30N 36°43' E 012°59'1019.9
2017-Jun-24 12:00N 36°46' E 012°47'1020.2
2017-Jun-24 11:30N 36°49' E 012°35'1020.2
2017-Jun-24 11:00N 36°52' E 012°23'1020.1
2017-Jun-24 10:30N 36°56' E 012°11'1020.5
2017-Jun-24 10:00N 37°01' E 011°60'1020.3
2017-Jun-24 09:30N 37°06' E 011°49'1020.4
2017-Jun-24 09:00N 37°12' E 011°38'1020.4
2017-Jun-24 08:30N 37°16' E 011°26'1020.6
2017-Jun-24 08:00N 37°20' E 011°14'1121.0
2017-Jun-24 07:29N 37°24' E 011°02'1120.6
2017-Jun-24 06:58N 37°27' E 010°49'920.8
2017-Jun-24 06:30N 37°29' E 010°37'1020.6
2017-Jun-24 06:00N 37°32' E 010°24'1120.8
2017-Jun-24 05:29N 37°33' E 010°11'1020.9
2017-Jun-24 05:00N 37°32' E 009°58'1621.0
2017-Jun-24 04:14N 37°30' E 009°38'520.8
2017-Jun-24 03:59N 37°29' E 009°32'1020.7
2017-Jun-24 03:30N 37°27' E 009°19'1020.4
2017-Jun-24 02:59N 37°24' E 009°07'1120.2
2017-Jun-24 02:25N 37°21' E 008°53'920.3
2017-Jun-24 02:00N 37°19' E 008°42'3420.2
2017-Jun-24 00:20N 37°18' E 008°00'720.5
2017-Jun-24 00:00N 37°19' E 007°51'22520.5
2017-Jun-23 13:03N 37°03' E 003°10'120.0
2017-Jun-23 13:00N 37°03' E 003°09'1020.0
2017-Jun-23 12:30N 37°01' E 002°57'1020.1
2017-Jun-23 12:00N 36°59' E 002°44'1020.1
2017-Jun-23 11:30N 36°58' E 002°32'1020.0
2017-Jun-23 11:00N 36°56' E 002°20'1020.0
2017-Jun-23 10:30N 36°54' E 002°07'1020.0
2017-Jun-23 10:00N 36°52' E 001°55'1019.9
2017-Jun-23 09:30N 36°50' E 001°43'1119.9
2017-Jun-23 08:58N 36°47' E 001°30'920.1
2017-Jun-23 08:30N 36°45' E 001°19'1120.2
2017-Jun-23 07:58N 36°43' E 001°05'1020.3
2017-Jun-23 07:28N 36°40' E 000°53'1020.2
2017-Jun-23 07:00N 36°39' E 000°42'1120.4
2017-Jun-23 06:29N 36°39' E 000°28'1020.6
2017-Jun-23 06:00N 36°37' E 000°16'1020.6
2017-Jun-23 05:30N 36°36' E 000°04'1120.6
2017-Jun-23 05:00N 36°35' W 000°09'1020.6
2017-Jun-23 04:30N 36°33' W 000°22'1020.8
2017-Jun-23 04:00N 36°31' W 000°35'1020.3
2017-Jun-23 03:30N 36°30' W 000°47'1020.1
2017-Jun-23 03:00N 36°28' W 000°60'1020.5
2017-Jun-23 02:30N 36°26' W 001°12'1020.8
2017-Jun-23 02:00N 36°25' W 001°25'1020.5
2017-Jun-23 01:30N 36°23' W 001°37'1020.3
2017-Jun-23 01:00N 36°21' W 001°50'1020.5
2017-Jun-23 00:30N 36°19' W 002°02'1020.9
2017-Jun-23 00:00N 36°17' W 002°15'13320.5
2017-Jun-22 17:30N 36°00' W 004°59'1121.4
2017-Jun-22 17:00N 35°59' W 005°12'1122.7
2017-Jun-22 16:31N 35°57' W 005°25'1223.7
2017-Jun-22 16:00N 35°54' W 005°40'1222.9
2017-Jun-22 15:29N 35°54' W 005°54'1122.0
2017-Jun-22 15:00N 35°53' W 006°08'2320.9
2017-Jun-22 13:53N 35°57' W 006°36'820.7
2017-Jun-22 13:30N 35°59' W 006°45'1520.7
2017-Jun-22 12:48N 36°03' W 007°03'2120.6
2017-Jun-22 11:48N 36°09' W 007°27'3920.6
2017-Jun-22 09:55N 36°19' W 008°14'1020.5
2017-Jun-22 09:25N 36°21' W 008°26'820.5
2017-Jun-22 09:00N 36°24' W 008°36'1020.5
2017-Jun-22 08:31N 36°26' W 008°48'1020.5
2017-Jun-22 08:01N 36°29' W 009°01'1020.3
2017-Jun-22 07:31N 36°32' W 009°13'1019.7
2017-Jun-22 07:00N 36°38' W 009°23'1020.1
2017-Jun-22 06:30N 36°46' W 009°30'1520.0
2017-Jun-22 05:44N 37°00' W 009°37'820.4
2017-Jun-22 05:21N 37°08' W 009°39'820.4
2017-Jun-22 04:58N 37°15' W 009°42'920.3
2017-Jun-22 04:30N 37°24' W 009°44'1020.7
2017-Jun-22 04:01N 37°34' W 009°48'2420.6
2017-Jun-22 02:52N 37°57' W 009°55'720.5
2017-Jun-22 02:31N 38°04' W 009°57'1120.6
2017-Jun-22 01:59N 38°15' W 010°00'1020.6
2017-Jun-22 01:30N 38°25' W 010°03'1020.8
2017-Jun-22 01:01N 38°35' W 010°05'1020.3
2017-Jun-22 00:31N 38°45' W 010°07'1020.2
2017-Jun-22 00:00N 38°55' W 010°07'1020.1
2017-Jun-21 23:31N 39°05' W 010°08'1020.3
2017-Jun-21 23:00N 39°15' W 010°08'1020.7
2017-Jun-21 22:31N 39°25' W 010°09'1020.6
2017-Jun-21 22:00N 39°36' W 010°09'4520.4
2017-Jun-21 19:50N 40°20' W 010°08'29319.8
2017-Jun-21 04:59N 45°07' W 008°43'6120.2
2017-Jun-21 01:57N 46°02' W 008°06'5320.0
2017-Jun-20 23:17N 46°48' W 007°27'619.9
2017-Jun-20 23:00N 46°53' W 007°23'1020.2
2017-Jun-20 22:30N 47°02' W 007°17'11920.6
2017-Jun-20 16:44N 48°46' W 005°52'521.1
2017-Jun-20 16:31N 48°51' W 005°48'1120.0
2017-Jun-20 15:58N 48°58' W 005°36'1020.6
2017-Jun-20 15:29N 49°03' W 005°23'1020.2
2017-Jun-20 15:01N 49°08' W 005°10'1019.9
2017-Jun-20 14:30N 49°13' W 004°57'2019.5
2017-Jun-20 13:30N 49°23' W 004°31'919.4
2017-Jun-20 13:01N 49°28' W 004°19'1019.5
2017-Jun-20 12:31N 49°33' W 004°06'1019.9
2017-Jun-20 12:00N 49°37' W 003°52'1120.3
2017-Jun-20 11:29N 49°43' W 003°38'1021.0
2017-Jun-20 11:01N 49°48' W 003°25'1121.4
2017-Jun-20 10:31N 49°53' W 003°11'1121.9
2017-Jun-20 10:00N 49°58' W 002°55'1122.3
2017-Jun-20 09:31N 50°00' W 002°38'1122.5
2017-Jun-20 09:01N 50°02' W 002°21'1222.1
2017-Jun-20 08:29N 50°03' W 002°03'1021.5
2017-Jun-20 08:00N 50°01' W 001°47'1020.9
2017-Jun-20 07:31N 49°57' W 001°32'1020.8
2017-Jun-20 07:01N 49°53' W 001°18'1020.2
2017-Jun-20 06:30N 49°48' W 001°04'1019.6
2017-Jun-20 06:01N 49°44' W 000°50'1019.3
2017-Jun-20 05:31N 49°40' W 000°37'1019.1
2017-Jun-20 05:01N 49°36' W 000°23'917.4
2017-Jun-20 04:31N 49°33' W 000°11'713.3
2017-Jun-20 04:00N 49°30' W 000°01'612.2
2017-Jun-20 03:30N 49°28' E 000°07'2 3.1
2017-Jun-20 03:00N 49°27' E 000°10'0 0.0
2017-Jun-20 02:30N 49°27' E 000°10'0 0.0
2017-Jun-20 02:00N 49°27' E 000°10'0 0.0
2017-Jun-20 01:30N 49°27' E 000°10'0 0.0
2017-Jun-20 01:00N 49°27' E 000°10'0 0.0
2017-Jun-20 00:30N 49°27' E 000°10'0 0.0
2017-Jun-20 00:00N 49°27' E 000°10'0 0.0
2017-Jun-19 23:30N 49°27' E 000°10'0 0.0
2017-Jun-19 23:00N 49°27' E 000°10'0 0.0
2017-Jun-19 22:30N 49°27' E 000°10'0 0.0
2017-Jun-19 22:00N 49°27' E 000°10'0 0.0
2017-Jun-19 21:30N 49°27' E 000°10'0 0.0
2017-Jun-19 21:00N 49°27' E 000°10'0 0.0
2017-Jun-19 20:30N 49°27' E 000°10'0 0.0
2017-Jun-19 20:00N 49°27' E 000°10'0 0.0
2017-Jun-19 19:30N 49°27' E 000°10'0 0.0
2017-Jun-19 19:00N 49°27' E 000°10'0 0.0
2017-Jun-19 18:30N 49°27' E 000°10'0 0.0
2017-Jun-19 18:00N 49°27' E 000°10'0 0.0
2017-Jun-19 17:30N 49°27' E 000°10'0 0.0
2017-Jun-19 17:00N 49°27' E 000°10'0 0.0
2017-Jun-19 16:30N 49°27' E 000°10'0 0.0
2017-Jun-19 16:00N 49°27' E 000°10'0 0.0
2017-Jun-19 15:30N 49°27' E 000°10'0 0.0
2017-Jun-19 15:00N 49°27' E 000°10'0 0.0
2017-Jun-19 14:30N 49°27' E 000°10'0 0.0
2017-Jun-19 13:30N 49°27' E 000°10'0 0.0
2017-Jun-19 13:00N 49°27' E 000°10'0 0.0
2017-Jun-19 12:30N 49°27' E 000°10'0 0.0
2017-Jun-19 12:00N 49°27' E 000°10'0 0.0
2017-Jun-19 11:30N 49°27' E 000°10'0 0.0
2017-Jun-19 11:00N 49°27' E 000°10'0 0.0
2017-Jun-19 10:30N 49°27' E 000°10'0 0.0
2017-Jun-19 10:00N 49°27' E 000°10'0 0.0
2017-Jun-19 09:30N 49°27' E 000°10'0 0.0
2017-Jun-19 09:00N 49°27' E 000°10'0 0.0
2017-Jun-19 08:30N 49°27' E 000°10'0 0.0
2017-Jun-19 08:00N 49°27' E 000°10'0 0.0
2017-Jun-19 07:30N 49°27' E 000°10'0 0.0
2017-Jun-19 07:00N 49°27' E 000°10'0 0.0
2017-Jun-19 06:30N 49°27' E 000°10'0 0.0
2017-Jun-19 06:00N 49°27' E 000°10'0 0.0
2017-Jun-19 05:30N 49°27' E 000°10'0 0.0
2017-Jun-19 05:00N 49°27' E 000°10'0 0.0
2017-Jun-19 04:30N 49°27' E 000°10'0 0.0
2017-Jun-19 04:00N 49°27' E 000°10'0 0.0
2017-Jun-19 03:30N 49°27' E 000°10'0 0.0
2017-Jun-19 03:00N 49°27' E 000°10'0 0.0
2017-Jun-19 02:30N 49°27' E 000°10'0 0.0
2017-Jun-19 02:00N 49°27' E 000°10'0 0.0
2017-Jun-19 01:30N 49°27' E 000°10'0 0.1
2017-Jun-19 01:00N 49°27' E 000°10'0 0.0
2017-Jun-19 00:30N 49°27' E 000°10'0 0.0
2017-Jun-19 00:00N 49°27' E 000°10'0 0.0
2017-Jun-18 23:30N 49°27' E 000°10'0 0.0
2017-Jun-18 23:00N 49°27' E 000°10'0 0.0
2017-Jun-18 22:30N 49°27' E 000°10'0 0.0
2017-Jun-18 22:00N 49°27' E 000°10'0 0.0
2017-Jun-18 21:30N 49°27' E 000°10'0 0.0
2017-Jun-18 21:00N 49°27' E 000°10'0 0.0
2017-Jun-18 20:30N 49°27' E 000°10'0 0.0
2017-Jun-18 20:00N 49°27' E 000°10'0 0.0
2017-Jun-18 19:30N 49°27' E 000°10'0 0.0
2017-Jun-18 19:00N 49°27' E 000°10'0 0.0
2017-Jun-18 18:30N 49°27' E 000°10'0 0.0
2017-Jun-18 18:00N 49°27' E 000°10'0 0.0
2017-Jun-18 17:30N 49°27' E 000°10'0 0.0
2017-Jun-18 17:00N 49°27' E 000°10'0 0.0
2017-Jun-18 16:30N 49°27' E 000°10'0 0.0
2017-Jun-18 16:00N 49°27' E 000°10'0 0.0
2017-Jun-18 15:30N 49°27' E 000°10'0 0.0
2017-Jun-18 15:00N 49°27' E 000°10'0 0.0
2017-Jun-18 14:00N 49°27' E 000°10'0 0.0
2017-Jun-18 13:30N 49°27' E 000°10'0 0.0
2017-Jun-18 13:00N 49°27' E 000°10'0 0.0
2017-Jun-18 12:30N 49°27' E 000°10'0 0.0
2017-Jun-18 12:00N 49°27' E 000°10'0 0.0
2017-Jun-18 11:30N 49°27' E 000°10'0 0.0
2017-Jun-18 11:00N 49°27' E 000°10'0 0.0
2017-Jun-18 10:30N 49°27' E 000°10'0 0.0
2017-Jun-18 10:00N 49°27' E 000°10'0 0.0
2017-Jun-18 09:30N 49°27' E 000°10'0 0.0
2017-Jun-18 09:00N 49°27' E 000°10'0 0.0
2017-Jun-18 08:30N 49°27' E 000°10'0 0.0
2017-Jun-18 08:00N 49°27' E 000°10'0 0.0
2017-Jun-18 07:30N 49°27' E 000°10'0 0.0
2017-Jun-18 07:00N 49°27' E 000°10'0 0.0
2017-Jun-18 06:30N 49°27' E 000°10'0 0.0
2017-Jun-18 06:00N 49°27' E 000°10'0 0.0
2017-Jun-18 05:30N 49°27' E 000°10'0 0.0
2017-Jun-18 05:00N 49°27' E 000°10'0 0.0
2017-Jun-18 04:30N 49°27' E 000°10'0 0.0
2017-Jun-18 04:00N 49°27' E 000°10'0 0.0
2017-Jun-18 03:30N 49°27' E 000°10'0 0.0
2017-Jun-18 03:00N 49°27' E 000°10'0 0.0
2017-Jun-18 02:30N 49°27' E 000°10'0 0.0
2017-Jun-18 02:00N 49°27' E 000°10'0 0.0
2017-Jun-18 01:30N 49°27' E 000°10'0 0.0
2017-Jun-18 01:00N 49°27' E 000°10'0 0.0
2017-Jun-18 00:30N 49°27' E 000°10'0 0.0
2017-Jun-18 00:00N 49°27' E 000°10'0 0.0
2017-Jun-17 23:30N 49°27' E 000°10'0 0.0
2017-Jun-17 23:00N 49°27' E 000°10'0 0.0
2017-Jun-17 22:30N 49°27' E 000°10'0 0.0
2017-Jun-17 22:00N 49°27' E 000°10'0 0.0
2017-Jun-17 21:30N 49°27' E 000°10'0 0.0
2017-Jun-17 21:00N 49°27' E 000°10'0 0.0
2017-Jun-17 20:30N 49°27' E 000°10'0 0.0
2017-Jun-17 20:00N 49°27' E 000°10'0 0.0
2017-Jun-17 19:30N 49°27' E 000°10'0 0.0
2017-Jun-17 19:00N 49°27' E 000°10'0 0.0
2017-Jun-17 18:30N 49°27' E 000°10'0 0.0
2017-Jun-17 18:00N 49°27' E 000°10'0 0.0
2017-Jun-17 17:30N 49°27' E 000°10'0 0.0
2017-Jun-17 17:00N 49°27' E 000°10'0 0.0
2017-Jun-17 16:30N 49°27' E 000°10'0 0.0
2017-Jun-17 16:00N 49°27' E 000°10'0 0.0
2017-Jun-17 15:30N 49°27' E 000°10'0 0.0
2017-Jun-17 15:00N 49°27' E 000°10'0 0.0
2017-Jun-17 14:30N 49°27' E 000°10'0 0.0
2017-Jun-17 13:30N 49°27' E 000°10'0 0.0
2017-Jun-17 13:00N 49°27' E 000°10'0 0.0
2017-Jun-17 12:30N 49°27' E 000°10'0 0.0
2017-Jun-17 12:00N 49°27' E 000°10'0 0.0
2017-Jun-17 11:30N 49°27' E 000°10'0 0.0
2017-Jun-17 11:00N 49°27' E 000°10'0 0.0
2017-Jun-17 10:30N 49°27' E 000°10'0 0.0
2017-Jun-17 10:00N 49°27' E 000°10'0 0.0
2017-Jun-17 09:27N 49°27' E 000°10'0 0.0
2017-Jun-17 09:00N 49°27' E 000°10'0 0.0
2017-Jun-17 08:30N 49°27' E 000°10'0 0.2
2017-Jun-17 08:00N 49°27' E 000°10'2 4.2
2017-Jun-17 07:30N 49°28' E 000°06'611.9
2017-Jun-17 07:00N 49°30' W 000°02'4 8.4
2017-Jun-17 06:30N 49°32' W 000°08'612.5
2017-Jun-17 06:00N 49°32' W 000°18'3 6.0
2017-Jun-17 05:30N 49°33' W 000°22'0 0.7
2017-Jun-17 05:01N 49°33' W 000°22'0 0.6
2017-Jun-17 04:31N 49°33' W 000°21'0 0.8
2017-Jun-17 04:00N 49°33' W 000°21'1 1.3
2017-Jun-17 03:30N 49°34' W 000°21'2 3.5
2017-Jun-17 03:00N 49°35' W 000°23'5 9.1
2017-Jun-17 02:30N 49°38' W 000°29'612.6
2017-Jun-17 02:01N 49°43' W 000°33'612.6
2017-Jun-17 01:30N 49°49' W 000°37'612.8
2017-Jun-17 01:01N 49°54' W 000°42'  
Track history (hours):
 
Tides and Currents Weather Stations Pressure Air Temp Water Temp Dewpoint Dewpoint Depression Visibility Wind Speed Wind Dir Waves Ship Positions

Nyk Olympus

Last reported at 2017-Jun-27 00:47 UTC. Time now 2017-Jun-27 05:25 UTC.
Position N 31°27' E 032°24'.

Length 335 m; draft 13.6 m.

Type: Other ship. MMSI: 372478000.

Date/timePositionNaut miles runAvg speedWind from/ knotsBaromVisibWave heightAir tempDewpointWater temp
2017-Jun-27 00:47N 31°27' E 032°24'311.6
2017-Jun-27 00:31N 31°29' E 032°20'1 0.3
2017-Jun-26 21:59N 31°28' E 032°20'0 0.0
2017-Jun-26 21:29N 31°28' E 032°20'0 0.0
2017-Jun-26 20:59N 31°28' E 032°20'0 0.0
2017-Jun-26 20:29N 31°28' E 032°20'0 0.0
2017-Jun-26 19:59N 31°28' E 032°20'0 0.0
2017-Jun-26 19:29N 31°28' E 032°20'0 0.0
2017-Jun-26 18:59N 31°28' E 032°20'0 0.0
2017-Jun-26 18:23N 31°28' E 032°20'0 0.0
2017-Jun-26 17:23N 31°28' E 032°20'1 1.8
2017-Jun-26 17:00N 31°28' E 032°20'4 7.9
2017-Jun-26 16:30N 31°29' E 032°15'918.3
2017-Jun-26 16:00N 31°36' E 032°08'1019.0
2017-Jun-26 15:28N 31°43' E 031°59'919.1
2017-Jun-26 15:00N 31°47' E 031°50'1019.3
2017-Jun-26 14:30N 31°50' E 031°39'1919.3
2017-Jun-26 13:30N 31°56' E 031°18'1019.2
2017-Jun-26 13:00N 31°59' E 031°07'1119.2
2017-Jun-26 12:25N 32°03' E 030°54'1019.2
2017-Jun-26 11:54N 32°05' E 030°43'819.3
2017-Jun-26 11:30N 32°08' E 030°34'919.4
2017-Jun-26 11:00N 32°11' E 030°24'1019.3
2017-Jun-26 10:30N 32°13' E 030°13'1019.4
2017-Jun-26 10:00N 32°16' E 030°02'1019.4
2017-Jun-26 09:30N 32°19' E 029°51'12618.9
2017-Jun-26 02:49N 32°57' E 027°28'24919.0
2017-Jun-25 13:42N 34°13' E 022°43'13319.5
2017-Jun-25 06:53N 34°53' E 020°10'819.5
2017-Jun-25 06:29N 34°56' E 020°01'4119.9
2017-Jun-25 04:24N 35°08' E 019°12'920.0
2017-Jun-25 03:58N 35°11' E 019°02'920.0
2017-Jun-25 03:30N 35°14' E 018°51'1119.8
2017-Jun-25 02:57N 35°17' E 018°39'919.7
2017-Jun-25 02:30N 35°20' E 018°28'1019.8
2017-Jun-25 02:00N 35°23' E 018°17'1020.0
2017-Jun-25 01:30N 35°26' E 018°05'1320.0
2017-Jun-25 00:52N 35°30' E 017°50'719.7
2017-Jun-25 00:30N 35°32' E 017°42'1019.6
2017-Jun-25 00:00N 35°35' E 017°30'1019.8
2017-Jun-24 23:30N 35°37' E 017°18'1020.0
2017-Jun-24 23:00N 35°40' E 017°07'1020.0
2017-Jun-24 22:30N 35°43' E 016°55'1020.3
2017-Jun-24 22:00N 35°46' E 016°43'1020.3
2017-Jun-24 21:30N 35°49' E 016°31'1020.2
2017-Jun-24 21:00N 35°52' E 016°19'1020.2
2017-Jun-24 20:30N 35°55' E 016°07'1020.1
2017-Jun-24 20:00N 35°58' E 015°55'1020.2
2017-Jun-24 19:30N 36°00' E 015°43'1020.2
2017-Jun-24 19:00N 36°03' E 015°31'1020.1
2017-Jun-24 18:30N 36°06' E 015°19'1019.6
2017-Jun-24 17:59N 36°10' E 015°08'1020.2
2017-Jun-24 17:30N 36°13' E 014°56'1020.2
2017-Jun-24 17:00N 36°16' E 014°44'1020.1
2017-Jun-24 16:30N 36°19' E 014°32'1019.9
2017-Jun-24 16:00N 36°23' E 014°21'1019.8
2017-Jun-24 15:30N 36°26' E 014°09'1019.8
2017-Jun-24 15:00N 36°29' E 013°58'2019.8
2017-Jun-24 14:00N 36°35' E 013°34'1019.9
2017-Jun-24 13:30N 36°38' E 013°22'1019.9
2017-Jun-24 13:00N 36°41' E 013°10'1019.8
2017-Jun-24 12:30N 36°43' E 012°59'1019.9
2017-Jun-24 12:00N 36°46' E 012°47'1020.2
2017-Jun-24 11:30N 36°49' E 012°35'1020.2
2017-Jun-24 11:00N 36°52' E 012°23'1020.1
2017-Jun-24 10:30N 36°56' E 012°11'1020.5
2017-Jun-24 10:00N 37°01' E 011°60'1020.3
2017-Jun-24 09:30N 37°06' E 011°49'1020.4
2017-Jun-24 09:00N 37°12' E 011°38'1020.4
2017-Jun-24 08:30N 37°16' E 011°26'1020.6
2017-Jun-24 08:00N 37°20' E 011°14'1121.0
2017-Jun-24 07:29N 37°24' E 011°02'1120.6
2017-Jun-24 06:58N 37°27' E 010°49'920.8
2017-Jun-24 06:30N 37°29' E 010°37'1020.6
2017-Jun-24 06:00N 37°32' E 010°24'1120.8
2017-Jun-24 05:29N 37°33' E 010°11'1020.9
2017-Jun-24 05:00N 37°32' E 009°58'1621.0
2017-Jun-24 04:14N 37°30' E 009°38'520.8
2017-Jun-24 03:59N 37°29' E 009°32'1020.7
2017-Jun-24 03:30N 37°27' E 009°19'1020.4
2017-Jun-24 02:59N 37°24' E 009°07'1120.2
2017-Jun-24 02:25N 37°21' E 008°53'920.3
2017-Jun-24 02:00N 37°19' E 008°42'3420.2
2017-Jun-24 00:20N 37°18' E 008°00'720.5
2017-Jun-24 00:00N 37°19' E 007°51'22520.5
2017-Jun-23 13:03N 37°03' E 003°10'120.0
2017-Jun-23 13:00N 37°03' E 003°09'1020.0
2017-Jun-23 12:30N 37°01' E 002°57'1020.1
2017-Jun-23 12:00N 36°59' E 002°44'1020.1
2017-Jun-23 11:30N 36°58' E 002°32'1020.0
2017-Jun-23 11:00N 36°56' E 002°20'1020.0
2017-Jun-23 10:30N 36°54' E 002°07'1020.0
2017-Jun-23 10:00N 36°52' E 001°55'1019.9
2017-Jun-23 09:30N 36°50' E 001°43'1119.9
2017-Jun-23 08:58N 36°47' E 001°30'920.1
2017-Jun-23 08:30N 36°45' E 001°19'1120.2
2017-Jun-23 07:58N 36°43' E 001°05'1020.3
2017-Jun-23 07:28N 36°40' E 000°53'1020.2
2017-Jun-23 07:00N 36°39' E 000°42'1120.4
2017-Jun-23 06:29N 36°39' E 000°28'1020.6
2017-Jun-23 06:00N 36°37' E 000°16'1020.6
2017-Jun-23 05:30N 36°36' E 000°04'1120.6
2017-Jun-23 05:00N 36°35' W 000°09'1020.6
2017-Jun-23 04:30N 36°33' W 000°22'1020.8
2017-Jun-23 04:00N 36°31' W 000°35'1020.3
2017-Jun-23 03:30N 36°30' W 000°47'1020.1
2017-Jun-23 03:00N 36°28' W 000°60'1020.5
2017-Jun-23 02:30N 36°26' W 001°12'1020.8
2017-Jun-23 02:00N 36°25' W 001°25'1020.5
2017-Jun-23 01:30N 36°23' W 001°37'1020.3
2017-Jun-23 01:00N 36°21' W 001°50'1020.5
2017-Jun-23 00:30N 36°19' W 002°02'1020.9
2017-Jun-23 00:00N 36°17' W 002°15'13320.5
2017-Jun-22 17:30N 36°00' W 004°59'1121.4
2017-Jun-22 17:00N 35°59' W 005°12'1122.7
2017-Jun-22 16:31N 35°57' W 005°25'1223.7
2017-Jun-22 16:00N 35°54' W 005°40'1222.9
2017-Jun-22 15:29N 35°54' W 005°54'1122.0
2017-Jun-22 15:00N 35°53' W 006°08'2320.9
2017-Jun-22 13:53N 35°57' W 006°36'820.7
2017-Jun-22 13:30N 35°59' W 006°45'1520.7
2017-Jun-22 12:48N 36°03' W 007°03'2120.6
2017-Jun-22 11:48N 36°09' W 007°27'3920.6
2017-Jun-22 09:55N 36°19' W 008°14'1020.5
2017-Jun-22 09:25N 36°21' W 008°26'820.5
2017-Jun-22 09:00N 36°24' W 008°36'1020.5
2017-Jun-22 08:31N 36°26' W 008°48'1020.5
2017-Jun-22 08:01N 36°29' W 009°01'1020.3
2017-Jun-22 07:31N 36°32' W 009°13'1019.7
2017-Jun-22 07:00N 36°38' W 009°23'1020.1
2017-Jun-22 06:30N 36°46' W 009°30'1520.0
2017-Jun-22 05:44N 37°00' W 009°37'820.4
2017-Jun-22 05:21N 37°08' W 009°39'820.4
2017-Jun-22 04:58N 37°15' W 009°42'920.3
2017-Jun-22 04:30N 37°24' W 009°44'1020.7
2017-Jun-22 04:01N 37°34' W 009°48'2420.6
2017-Jun-22 02:52N 37°57' W 009°55'720.5
2017-Jun-22 02:31N 38°04' W 009°57'1120.6
2017-Jun-22 01:59N 38°15' W 010°00'1020.6
2017-Jun-22 01:30N 38°25' W 010°03'1020.8
2017-Jun-22 01:01N 38°35' W 010°05'1020.3
2017-Jun-22 00:31N 38°45' W 010°07'1020.2
2017-Jun-22 00:00N 38°55' W 010°07'1020.1
2017-Jun-21 23:31N 39°05' W 010°08'1020.3
2017-Jun-21 23:00N 39°15' W 010°08'1020.7
2017-Jun-21 22:31N 39°25' W 010°09'1020.6
2017-Jun-21 22:00N 39°36' W 010°09'4520.4
2017-Jun-21 19:50N 40°20' W 010°08'29319.8
2017-Jun-21 04:59N 45°07' W 008°43'6120.2
2017-Jun-21 01:57N 46°02' W 008°06'5320.0
2017-Jun-20 23:17N 46°48' W 007°27'619.9
2017-Jun-20 23:00N 46°53' W 007°23'1020.2
2017-Jun-20 22:30N 47°02' W 007°17'11920.6
2017-Jun-20 16:44N 48°46' W 005°52'521.1
2017-Jun-20 16:31N 48°51' W 005°48'1120.0
2017-Jun-20 15:58N 48°58' W 005°36'1020.6
2017-Jun-20 15:29N 49°03' W 005°23'1020.2
2017-Jun-20 15:01N 49°08' W 005°10'1019.9
2017-Jun-20 14:30N 49°13' W 004°57'2019.5
2017-Jun-20 13:30N 49°23' W 004°31'919.4
2017-Jun-20 13:01N 49°28' W 004°19'1019.5
2017-Jun-20 12:31N 49°33' W 004°06'1019.9
2017-Jun-20 12:00N 49°37' W 003°52'1120.3
2017-Jun-20 11:29N 49°43' W 003°38'1021.0
2017-Jun-20 11:01N 49°48' W 003°25'1121.4
2017-Jun-20 10:31N 49°53' W 003°11'1121.9
2017-Jun-20 10:00N 49°58' W 002°55'1122.3
2017-Jun-20 09:31N 50°00' W 002°38'1122.5
2017-Jun-20 09:01N 50°02' W 002°21'1222.1
2017-Jun-20 08:29N 50°03' W 002°03'1021.5
2017-Jun-20 08:00N 50°01' W 001°47'1020.9
2017-Jun-20 07:31N 49°57' W 001°32'1020.8
2017-Jun-20 07:01N 49°53' W 001°18'1020.2
2017-Jun-20 06:30N 49°48' W 001°04'1019.6
2017-Jun-20 06:01N 49°44' W 000°50'1019.3
2017-Jun-20 05:31N 49°40' W 000°37'1019.1
2017-Jun-20 05:01N 49°36' W 000°23'917.4
2017-Jun-20 04:31N 49°33' W 000°11'713.3
2017-Jun-20 04:00N 49°30' W 000°01'612.2
2017-Jun-20 03:30N 49°28' E 000°07'2 3.1
2017-Jun-20 03:00N 49°27' E 000°10'0 0.0
2017-Jun-20 02:30N 49°27' E 000°10'0 0.0
2017-Jun-20 02:00N 49°27' E 000°10'0 0.0
2017-Jun-20 01:30N 49°27' E 000°10'0 0.0
2017-Jun-20 01:00N 49°27' E 000°10'0 0.0
2017-Jun-20 00:30N 49°27' E 000°10'0 0.0
2017-Jun-20 00:00N 49°27' E 000°10'0 0.0
2017-Jun-19 23:30N 49°27' E 000°10'0 0.0
2017-Jun-19 23:00N 49°27' E 000°10'0 0.0
2017-Jun-19 22:30N 49°27' E 000°10'0 0.0
2017-Jun-19 22:00N 49°27' E 000°10'0 0.0
2017-Jun-19 21:30N 49°27' E 000°10'0 0.0
2017-Jun-19 21:00N 49°27' E 000°10'0 0.0
2017-Jun-19 20:30N 49°27' E 000°10'0 0.0
2017-Jun-19 20:00N 49°27' E 000°10'0 0.0
2017-Jun-19 19:30N 49°27' E 000°10'0 0.0
2017-Jun-19 19:00N 49°27' E 000°10'0 0.0
2017-Jun-19 18:30N 49°27' E 000°10'0 0.0
2017-Jun-19 18:00N 49°27' E 000°10'0 0.0
2017-Jun-19 17:30N 49°27' E 000°10'0 0.0
2017-Jun-19 17:00N 49°27' E 000°10'0 0.0
2017-Jun-19 16:30N 49°27' E 000°10'0 0.0
2017-Jun-19 16:00N 49°27' E 000°10'0 0.0
2017-Jun-19 15:30N 49°27' E 000°10'0 0.0
2017-Jun-19 15:00N 49°27' E 000°10'0 0.0
2017-Jun-19 14:30N 49°27' E 000°10'0 0.0
2017-Jun-19 13:30N 49°27' E 000°10'0 0.0
2017-Jun-19 13:00N 49°27' E 000°10'0 0.0
2017-Jun-19 12:30N 49°27' E 000°10'0 0.0
2017-Jun-19 12:00N 49°27' E 000°10'0 0.0
2017-Jun-19 11:30N 49°27' E 000°10'0 0.0
2017-Jun-19 11:00N 49°27' E 000°10'0 0.0
2017-Jun-19 10:30N 49°27' E 000°10'0 0.0
2017-Jun-19 10:00N 49°27' E 000°10'0 0.0
2017-Jun-19 09:30N 49°27' E 000°10'0 0.0
2017-Jun-19 09:00N 49°27' E 000°10'0 0.0
2017-Jun-19 08:30N 49°27' E 000°10'0 0.0
2017-Jun-19 08:00N 49°27' E 000°10'0 0.0
2017-Jun-19 07:30N 49°27' E 000°10'0 0.0
2017-Jun-19 07:00N 49°27' E 000°10'0 0.0
2017-Jun-19 06:30N 49°27' E 000°10'0 0.0
2017-Jun-19 06:00N 49°27' E 000°10'0 0.0
2017-Jun-19 05:30N 49°27' E 000°10'0 0.0
2017-Jun-19 05:00N 49°27' E 000°10'0 0.0
2017-Jun-19 04:30N 49°27' E 000°10'0 0.0
2017-Jun-19 04:00N 49°27' E 000°10'0 0.0
2017-Jun-19 03:30N 49°27' E 000°10'0 0.0
2017-Jun-19 03:00N 49°27' E 000°10'0 0.0
2017-Jun-19 02:30N 49°27' E 000°10'0 0.0
2017-Jun-19 02:00N 49°27' E 000°10'0 0.0
2017-Jun-19 01:30N 49°27' E 000°10'0 0.1
2017-Jun-19 01:00N 49°27' E 000°10'0 0.0
2017-Jun-19 00:30N 49°27' E 000°10'0 0.0
2017-Jun-19 00:00N 49°27' E 000°10'0 0.0
2017-Jun-18 23:30N 49°27' E 000°10'0 0.0
2017-Jun-18 23:00N 49°27' E 000°10'0 0.0
2017-Jun-18 22:30N 49°27' E 000°10'0 0.0
2017-Jun-18 22:00N 49°27' E 000°10'0 0.0
2017-Jun-18 21:30N 49°27' E 000°10'0 0.0
2017-Jun-18 21:00N 49°27' E 000°10'0 0.0
2017-Jun-18 20:30N 49°27' E 000°10'0 0.0
2017-Jun-18 20:00N 49°27' E 000°10'0 0.0
2017-Jun-18 19:30N 49°27' E 000°10'0 0.0
2017-Jun-18 19:00N 49°27' E 000°10'0 0.0
2017-Jun-18 18:30N 49°27' E 000°10'0 0.0
2017-Jun-18 18:00N 49°27' E 000°10'0 0.0
2017-Jun-18 17:30N 49°27' E 000°10'0 0.0
2017-Jun-18 17:00N 49°27' E 000°10'0 0.0
2017-Jun-18 16:30N 49°27' E 000°10'0 0.0
2017-Jun-18 16:00N 49°27' E 000°10'0 0.0
2017-Jun-18 15:30N 49°27' E 000°10'0 0.0
2017-Jun-18 15:00N 49°27' E 000°10'0 0.0
2017-Jun-18 14:00N 49°27' E 000°10'0 0.0
2017-Jun-18 13:30N 49°27' E 000°10'0 0.0
2017-Jun-18 13:00N 49°27' E 000°10'0 0.0
2017-Jun-18 12:30N 49°27' E 000°10'0 0.0
2017-Jun-18 12:00N 49°27' E 000°10'0 0.0
2017-Jun-18 11:30N 49°27' E 000°10'0 0.0
2017-Jun-18 11:00N 49°27' E 000°10'0 0.0
2017-Jun-18 10:30N 49°27' E 000°10'0 0.0
2017-Jun-18 10:00N 49°27' E 000°10'0 0.0
2017-Jun-18 09:30N 49°27' E 000°10'0 0.0
2017-Jun-18 09:00N 49°27' E 000°10'0 0.0
2017-Jun-18 08:30N 49°27' E 000°10'0 0.0
2017-Jun-18 08:00N 49°27' E 000°10'0 0.0
2017-Jun-18 07:30N 49°27' E 000°10'0 0.0
2017-Jun-18 07:00N 49°27' E 000°10'0 0.0
2017-Jun-18 06:30N 49°27' E 000°10'0 0.0
2017-Jun-18 06:00N 49°27' E 000°10'0 0.0
2017-Jun-18 05:30N 49°27' E 000°10'0 0.0
2017-Jun-18 05:00N 49°27' E 000°10'0 0.0
2017-Jun-18 04:30N 49°27' E 000°10'0 0.0
2017-Jun-18 04:00N 49°27' E 000°10'0 0.0
2017-Jun-18 03:30N 49°27' E 000°10'0 0.0
2017-Jun-18 03:00N 49°27' E 000°10'0 0.0
2017-Jun-18 02:30N 49°27' E 000°10'0 0.0
2017-Jun-18 02:00N 49°27' E 000°10'0 0.0
2017-Jun-18 01:30N 49°27' E 000°10'0 0.0
2017-Jun-18 01:00N 49°27' E 000°10'0 0.0
2017-Jun-18 00:30N 49°27' E 000°10'0 0.0
2017-Jun-18 00:00N 49°27' E 000°10'0 0.0
2017-Jun-17 23:30N 49°27' E 000°10'0 0.0
2017-Jun-17 23:00N 49°27' E 000°10'0 0.0
2017-Jun-17 22:30N 49°27' E 000°10'0 0.0
2017-Jun-17 22:00N 49°27' E 000°10'0 0.0
2017-Jun-17 21:30N 49°27' E 000°10'0 0.0
2017-Jun-17 21:00N 49°27' E 000°10'0 0.0
2017-Jun-17 20:30N 49°27' E 000°10'0 0.0
2017-Jun-17 20:00N 49°27' E 000°10'0 0.0
2017-Jun-17 19:30N 49°27' E 000°10'0 0.0
2017-Jun-17 19:00N 49°27' E 000°10'0 0.0
2017-Jun-17 18:30N 49°27' E 000°10'0 0.0
2017-Jun-17 18:00N 49°27' E 000°10'0 0.0
2017-Jun-17 17:30N 49°27' E 000°10'0 0.0
2017-Jun-17 17:00N 49°27' E 000°10'0 0.0
2017-Jun-17 16:30N 49°27' E 000°10'0 0.0
2017-Jun-17 16:00N 49°27' E 000°10'0 0.0
2017-Jun-17 15:30N 49°27' E 000°10'0 0.0
2017-Jun-17 15:00N 49°27' E 000°10'0 0.0
2017-Jun-17 14:30N 49°27' E 000°10'0 0.0
2017-Jun-17 13:30N 49°27' E 000°10'0 0.0
2017-Jun-17 13:00N 49°27' E 000°10'0 0.0
2017-Jun-17 12:30N 49°27' E 000°10'0 0.0
2017-Jun-17 12:00N 49°27' E 000°10'0 0.0
2017-Jun-17 11:30N 49°27' E 000°10'0 0.0
2017-Jun-17 11:00N 49°27' E 000°10'0 0.0
2017-Jun-17 10:30N 49°27' E 000°10'0 0.0
2017-Jun-17 10:00N 49°27' E 000°10'0 0.0
2017-Jun-17 09:27N 49°27' E 000°10'0 0.0
2017-Jun-17 09:00N 49°27' E 000°10'0 0.0
2017-Jun-17 08:30N 49°27' E 000°10'0 0.2
2017-Jun-17 08:00N 49°27' E 000°10'2 4.2
2017-Jun-17 07:30N 49°28' E 000°06'611.9
2017-Jun-17 07:00N 49°30' W 000°02'4 8.4
2017-Jun-17 06:30N 49°32' W 000°08'612.5
2017-Jun-17 06:00N 49°32' W 000°18'3 6.0
2017-Jun-17 05:30N 49°33' W 000°22'0 0.7
2017-Jun-17 05:01N 49°33' W 000°22'0 0.6
2017-Jun-17 04:31N 49°33' W 000°21'0 0.8
2017-Jun-17 04:00N 49°33' W 000°21'1 1.3
2017-Jun-17 03:30N 49°34' W 000°21'2 3.5
2017-Jun-17 03:00N 49°35' W 000°23'5 9.1
2017-Jun-17 02:30N 49°38' W 000°29'612.6
2017-Jun-17 02:01N 49°43' W 000°33'612.6
2017-Jun-17 01:30N 49°49' W 000°37'612.8
2017-Jun-17 01:01N 49°54' W 000°42'  

Dump ship's entire track history